createdAt,value
2019-05-03T00:02:28.795Z,65.31
2019-05-03T00:05:09.706Z,65.23
2019-05-03T00:07:42.096Z,65.44
2019-05-03T00:10:14.006Z,65.37
2019-05-03T00:12:45.871Z,65.20
2019-05-03T00:15:24.269Z,65.16
2019-05-03T00:17:56.163Z,65.31
2019-05-03T00:20:28.154Z,65.29
2019-05-03T00:23:00.013Z,65.17
2019-05-03T00:25:32.659Z,65.24
2019-05-03T00:28:04.647Z,65.64
2019-05-03T00:30:36.563Z,66.37
2019-05-03T00:33:08.355Z,67.42
2019-05-03T00:36:05.028Z,69.03
2019-05-03T00:38:37.118Z,70.29
2019-05-03T00:41:08.973Z,70.85
2019-05-03T00:43:42.349Z,70.45
2019-05-03T00:46:14.354Z,70.84
2019-05-03T00:48:46.224Z,71.43
2019-05-03T00:51:18.074Z,70.96
2019-05-03T00:53:49.930Z,68.62
2019-05-03T00:56:21.792Z,69.06
2019-05-03T00:58:57.449Z,68.53
2019-05-03T01:01:29.322Z,67.96
2019-05-03T01:04:02.357Z,68.56
2019-05-03T01:06:34.368Z,69.47
2019-05-03T01:09:11.749Z,69.56
2019-05-03T01:11:43.358Z,70.21
2019-05-03T01:14:15.205Z,68.94
2019-05-03T01:16:47.059Z,68.11
2019-05-03T01:19:19.016Z,67.70
2019-05-03T01:21:51.546Z,68.75
2019-05-03T01:24:23.496Z,68.28
2019-05-03T01:26:55.359Z,69.32
2019-05-03T01:29:27.219Z,68.72
2019-05-03T01:32:02.126Z,67.31
2019-05-03T01:34:34.026Z,67.41
2019-05-03T01:37:05.890Z,67.65
2019-05-03T01:39:37.752Z,67.46
2019-05-03T01:42:09.605Z,67.56
2019-05-03T01:44:42.717Z,68.31
2019-05-03T01:47:21.844Z,69.12
2019-05-03T01:50:07.171Z,68.85
2019-05-03T01:52:41.999Z,68.36
2019-05-03T01:55:16.007Z,68.27
2019-05-03T01:57:47.970Z,67.86
2019-05-03T02:00:25.226Z,68.10
2019-05-03T02:03:12.378Z,68.14
2019-05-03T02:05:47.005Z,68.89
2019-05-03T02:08:18.850Z,68.92
2019-05-03T02:10:51.743Z,68.56
2019-05-03T02:13:23.765Z,68.80
2019-05-03T02:15:55.649Z,68.38
2019-05-03T02:18:27.436Z,69.38
2019-05-03T02:21:01.671Z,69.46
2019-05-03T02:23:33.922Z,69.40
2019-05-03T02:26:07.102Z,70.03
2019-05-03T02:28:38.956Z,70.45
2019-05-03T02:31:13.417Z,70.02
2019-05-03T02:33:44.363Z,70.02
2019-05-03T02:36:16.221Z,70.29
2019-05-03T02:38:48.017Z,70.97
2019-05-03T02:41:22.524Z,71.25
2019-05-03T02:43:56.091Z,71.17
2019-05-03T02:46:45.274Z,71.66
2019-05-03T02:49:25.748Z,71.65
2019-05-03T02:51:58.824Z,71.01
2019-05-03T02:54:30.610Z,69.77
2019-05-03T02:57:02.398Z,68.57
2019-05-03T02:59:35.294Z,68.69
2019-05-03T03:02:07.143Z,66.79
2019-05-03T03:04:38.998Z,67.23
2019-05-03T03:07:10.900Z,66.09
2019-05-03T03:09:45.132Z,65.34
2019-05-03T03:12:16.816Z,65.54
2019-05-03T03:14:48.921Z,66.27
2019-05-03T03:17:24.903Z,65.05
2019-05-03T03:19:56.773Z,64.47
2019-05-03T03:22:30.222Z,64.25
2019-05-03T03:25:05.392Z,64.17
2019-05-03T03:27:40.241Z,64.01
2019-05-03T03:30:31.369Z,63.42
2019-05-03T03:33:08.648Z,63.40
2019-05-03T03:35:40.741Z,62.92
2019-05-03T03:38:15.346Z,63.57
2019-05-03T03:40:46.347Z,63.42
2019-05-03T03:43:19.672Z,62.78
2019-05-03T03:45:51.919Z,63.01
2019-05-03T03:48:26.589Z,62.21
2019-05-03T03:50:57.829Z,62.02
2019-05-03T03:53:31.247Z,61.96
2019-05-03T03:56:05.616Z,62.46
2019-05-03T03:58:38.316Z,62.38
2019-05-03T04:01:10.172Z,62.78
2019-05-03T04:03:45.775Z,62.38
2019-05-03T04:06:16.844Z,62.64
2019-05-03T04:08:48.690Z,62.88
2019-05-03T04:11:20.544Z,64.13
2019-05-03T04:13:52.396Z,64.03
2019-05-03T04:16:46.396Z,65.67
2019-05-03T04:19:25.128Z,65.27
2019-05-03T04:21:56.614Z,65.58
2019-05-03T04:24:29.246Z,65.59
2019-05-03T04:27:18.729Z,65.88
2019-05-03T04:29:40.938Z,66.59
2019-05-03T04:32:15.410Z,66.69
2019-05-03T04:34:46.275Z,66.69
2019-05-03T04:37:18.157Z,66.37
2019-05-03T04:39:49.941Z,67.15
2019-05-03T04:42:21.798Z,65.67
2019-05-03T04:44:56.301Z,65.45
2019-05-03T04:47:27.191Z,66.71
2019-05-03T04:49:59.045Z,65.47
2019-05-03T04:52:30.917Z,66.29
2019-05-03T04:55:02.769Z,65.76
2019-05-03T04:57:40.484Z,64.56
2019-05-03T05:00:11.452Z,64.97
2019-05-03T05:02:45.743Z,64.45
2019-05-03T05:05:17.191Z,63.12
2019-05-03T05:07:48.983Z,63.91
2019-05-03T05:10:20.840Z,63.35
2019-05-03T05:12:54.964Z,63.19
2019-05-03T05:15:26.751Z,64.10
2019-05-03T05:18:26.181Z,62.85
2019-05-03T05:21:19.268Z,62.91
2019-05-03T05:23:59.482Z,62.61
2019-05-03T05:26:41.225Z,63.01
2019-05-03T05:29:14.683Z,62.36
2019-05-03T05:31:46.557Z,61.87
2019-05-03T05:34:18.359Z,62.44
2019-05-03T05:36:50.196Z,61.82
2019-05-03T05:39:22.009Z,61.76
2019-05-03T05:41:55.431Z,62.11
2019-05-03T05:44:27.364Z,61.19
2019-05-03T05:47:16.648Z,58.89
2019-05-03T05:49:55.165Z,57.52
2019-05-03T05:52:27.128Z,56.61
2019-05-03T05:55:35.831Z,54.41
2019-05-03T05:58:12.386Z,53.63
2019-05-03T06:00:59.146Z,54.51
2019-05-03T06:03:30.925Z,54.63
2019-05-03T06:06:05.451Z,55.22
2019-05-03T06:09:11.172Z,56.07
2019-05-03T06:11:47.897Z,56.30
2019-05-03T06:14:29.426Z,56.43
2019-05-03T06:17:06.485Z,56.13
2019-05-03T06:19:42.243Z,56.08
2019-05-03T06:22:30.644Z,55.32
2019-05-03T06:25:11.651Z,55.83
2019-05-03T06:27:44.964Z,55.88
2019-05-03T06:30:41.620Z,56.93
2019-05-03T06:33:14.370Z,56.49
2019-05-03T06:35:46.236Z,55.34
2019-05-03T06:38:18.086Z,55.05
2019-05-03T06:40:50.589Z,56.06
2019-05-03T06:43:24.283Z,55.52
2019-05-03T06:45:57.662Z,54.72
2019-05-03T06:48:31.970Z,55.00
2019-05-03T06:51:08.755Z,54.49
2019-05-03T06:53:37.210Z,54.06
2019-05-03T06:56:09.068Z,53.88
2019-05-03T06:58:41.187Z,54.83
2019-05-03T07:01:20.755Z,53.47
2019-05-03T07:04:15.261Z,54.72
2019-05-03T07:07:05.313Z,54.07
2019-05-03T07:09:51.304Z,52.65
2019-05-03T07:12:24.908Z,51.35
2019-05-03T07:14:57.924Z,51.46
2019-05-03T07:17:30.069Z,51.86
2019-05-03T07:20:04.560Z,51.73
2019-05-03T07:22:37.295Z,51.73
2019-05-03T07:25:09.213Z,50.63
2019-05-03T07:27:41.088Z,50.60
2019-05-03T07:30:13.059Z,50.52
2019-05-03T07:32:46.768Z,51.00
2019-05-03T07:35:18.632Z,50.62
2019-05-03T07:37:50.497Z,48.92
2019-05-03T07:40:22.494Z,47.79
2019-05-03T07:42:55.404Z,48.27
2019-05-03T07:45:27.512Z,48.17
2019-05-03T07:48:00.369Z,48.02
2019-05-03T07:50:33.265Z,49.88
2019-05-03T07:53:05.817Z,48.05
2019-05-03T07:55:55.060Z,48.04
2019-05-03T07:58:27.738Z,46.74
2019-05-03T08:01:08.800Z,47.04
2019-05-03T08:03:35.543Z,46.95
2019-05-03T08:06:07.636Z,48.09
2019-05-03T08:08:39.628Z,47.54
2019-05-03T08:11:11.506Z,47.79
2019-05-03T08:13:44.630Z,47.42
2019-05-03T08:16:16.544Z,46.67
2019-05-03T08:18:48.424Z,43.52
2019-05-03T08:21:21.644Z,43.85
2019-05-03T08:23:55.491Z,43.82
2019-05-03T08:26:27.239Z,43.02
2019-05-03T08:29:13.359Z,43.82
2019-05-03T08:32:01.422Z,43.87
2019-05-03T08:34:50.205Z,41.06
2019-05-03T08:37:27.972Z,40.69
2019-05-03T08:39:59.666Z,42.02
2019-05-03T08:42:31.570Z,40.43
2019-05-03T08:45:04.558Z,40.87
2019-05-03T08:47:37.061Z,41.91
2019-05-03T08:50:10.354Z,40.65
2019-05-03T08:52:42.657Z,41.37
2019-05-03T08:55:16.029Z,40.89
2019-05-03T08:57:49.010Z,40.86
2019-05-03T09:00:24.796Z,40.81
2019-05-03T09:02:56.237Z,41.66
2019-05-03T09:05:28.174Z,41.99
2019-05-03T09:08:00.078Z,42.82
2019-05-03T09:10:50.891Z,41.58
2019-05-03T09:13:24.970Z,42.07
2019-05-03T09:15:56.674Z,41.04
2019-05-03T09:18:28.623Z,42.52
2019-05-03T09:21:00.913Z,43.42
2019-05-03T09:23:32.914Z,41.84
2019-05-03T09:26:05.324Z,41.81
2019-05-03T09:28:38.062Z,39.70
2019-05-03T09:31:09.961Z,38.89
2019-05-03T09:33:41.872Z,38.99
2019-05-03T09:36:14.696Z,40.16
2019-05-03T09:38:46.791Z,38.52
2019-05-03T09:41:18.606Z,37.97
2019-05-03T09:43:50.578Z,38.78
2019-05-03T09:46:24.287Z,37.22
2019-05-03T09:49:09.448Z,36.57
2019-05-03T09:51:29.889Z,37.99
2019-05-03T09:54:08.592Z,35.81
2019-05-03T09:56:59.629Z,34.93
2019-05-03T09:59:32.708Z,34.74
2019-05-03T10:02:05.103Z,34.33
2019-05-03T10:04:37.113Z,34.09
2019-05-03T10:07:09.026Z,35.55
2019-05-03T10:09:40.918Z,36.19
2019-05-03T10:12:18.350Z,35.38
2019-05-03T10:14:51.118Z,35.31
2019-05-03T10:17:45.972Z,35.12
2019-05-03T10:20:19.033Z,35.14
2019-05-03T10:22:51.659Z,36.00
2019-05-03T10:25:24.784Z,35.62
2019-05-03T10:27:57.016Z,34.03
2019-05-03T10:30:29.031Z,33.11
2019-05-03T10:33:15.823Z,33.54
2019-05-03T10:35:47.743Z,34.66
2019-05-03T10:38:20.654Z,33.06
2019-05-03T10:40:54.875Z,33.11
2019-05-03T10:43:26.147Z,33.33
2019-05-03T10:45:58.023Z,34.07
2019-05-03T10:48:29.937Z,34.68
2019-05-03T10:51:01.984Z,32.91
2019-05-03T10:53:42.945Z,31.84
2019-05-03T10:56:22.818Z,32.74
2019-05-03T10:58:59.888Z,33.18
2019-05-03T11:02:01.684Z,33.70
2019-05-03T11:04:35.634Z,32.39
2019-05-03T11:07:07.907Z,32.01
2019-05-03T11:09:48.551Z,31.49
2019-05-03T11:12:15.220Z,30.47
2019-05-03T11:14:47.165Z,30.88
2019-05-03T11:17:19.543Z,28.99
2019-05-03T11:19:51.621Z,28.99
2019-05-03T11:22:25.250Z,28.40
2019-05-03T11:24:57.559Z,27.42
2019-05-03T11:27:38.571Z,27.86
2019-05-03T11:30:16.253Z,28.09
2019-05-03T11:32:58.648Z,29.02
2019-05-03T11:35:56.618Z,30.06
2019-05-03T11:38:35.129Z,31.27
2019-05-03T11:41:08.052Z,32.83
2019-05-03T11:43:40.167Z,32.95
2019-05-03T11:46:12.029Z,32.74
2019-05-03T11:48:45.505Z,32.67
2019-05-03T11:51:17.552Z,32.79
2019-05-03T11:53:50.418Z,32.72
2019-05-03T11:56:22.432Z,32.05
2019-05-03T11:58:54.997Z,31.15
2019-05-03T12:01:37.819Z,31.66
2019-05-03T12:04:09.788Z,31.68
2019-05-03T12:06:41.660Z,32.27
2019-05-03T12:09:15.507Z,33.16
2019-05-03T12:11:47.409Z,32.10
2019-05-03T12:14:19.359Z,32.15
2019-05-03T12:17:18.486Z,30.86
2019-05-03T12:19:41.744Z,31.48
2019-05-03T12:22:16.645Z,30.08
2019-05-03T12:24:48.583Z,30.49
2019-05-03T12:27:20.866Z,30.46
2019-05-03T12:29:52.965Z,28.15
2019-05-03T12:32:25.178Z,28.72
2019-05-03T12:34:57.123Z,28.39
2019-05-03T12:37:29.037Z,28.78
2019-05-03T12:40:00.890Z,28.59
2019-05-03T12:42:35.447Z,29.32
2019-05-03T12:45:07.356Z,28.25
2019-05-03T12:47:41.199Z,29.71
2019-05-03T12:50:15.697Z,30.15
2019-05-03T12:52:50.364Z,29.06
2019-05-03T12:55:22.036Z,29.27
2019-05-03T12:57:55.515Z,28.37
2019-05-03T13:00:39.093Z,28.23
2019-05-03T13:03:15.261Z,28.86
2019-05-03T13:05:47.383Z,29.37
2019-05-03T13:08:39.874Z,29.24
2019-05-03T13:11:12.156Z,28.16
2019-05-03T13:13:45.206Z,28.14
2019-05-03T13:16:19.972Z,29.20
2019-05-03T13:18:55.151Z,29.79
2019-05-03T13:21:27.424Z,28.24
2019-05-03T13:23:59.281Z,28.59
2019-05-03T13:26:31.152Z,27.79
2019-05-03T13:29:03.095Z,28.58
2019-05-03T13:31:35.279Z,28.50
2019-05-03T13:34:07.143Z,28.47
2019-05-03T13:36:38.953Z,29.37
2019-05-03T13:39:14.716Z,29.11
2019-05-03T13:41:45.735Z,29.23
2019-05-03T13:44:17.694Z,29.23
2019-05-03T13:46:49.540Z,28.04
2019-05-03T13:49:21.335Z,27.31
2019-05-03T13:51:54.858Z,27.31
2019-05-03T13:54:26.671Z,27.11
2019-05-03T13:56:58.541Z,27.11
2019-05-03T13:59:30.382Z,28.77
2019-05-03T14:02:12.561Z,28.77
2019-05-03T14:04:49.149Z,27.54
2019-05-03T14:07:12.442Z,26.79
2019-05-03T14:09:45.268Z,26.79
2019-05-03T14:12:17.315Z,27.21
2019-05-03T14:14:56.402Z,27.11
2019-05-03T14:17:29.527Z,26.17
2019-05-03T14:20:20.303Z,26.72
2019-05-03T14:22:52.784Z,26.65
2019-05-03T14:25:24.813Z,27.13
2019-05-03T14:27:59.664Z,26.69
2019-05-03T14:30:31.273Z,27.28
2019-05-03T14:33:04.916Z,27.28
2019-05-03T14:35:37.159Z,27.12
2019-05-03T14:38:08.961Z,27.50
2019-05-03T14:40:40.750Z,27.85
2019-05-03T14:43:12.612Z,27.44
2019-05-03T14:45:44.462Z,27.46
2019-05-03T14:48:16.352Z,27.63
2019-05-03T14:50:48.206Z,27.32
2019-05-03T14:53:20.077Z,26.42
2019-05-03T14:55:57.795Z,25.59
2019-05-03T14:58:48.162Z,25.22
2019-05-03T15:01:30.003Z,25.77
2019-05-03T15:04:01.854Z,25.61
2019-05-03T15:06:35.410Z,25.51
2019-05-03T15:09:08.048Z,25.67
2019-05-03T15:11:40.118Z,26.31
2019-05-03T15:14:11.977Z,27.18
2019-05-03T15:16:45.033Z,27.25
2019-05-03T15:19:17.042Z,25.66
2019-05-03T15:21:48.920Z,25.83
2019-05-03T15:24:20.767Z,26.23
2019-05-03T15:26:52.620Z,25.05
2019-05-03T15:29:25.491Z,25.82
2019-05-03T15:31:57.370Z,26.65
2019-05-03T15:34:29.231Z,26.37
2019-05-03T15:37:01.031Z,26.74
2019-05-03T15:39:32.903Z,27.47
2019-05-03T15:42:05.415Z,26.57
2019-05-03T15:44:59.096Z,27.03
2019-05-03T15:47:41.724Z,27.40
2019-05-03T15:50:15.467Z,26.61
2019-05-03T15:52:48.814Z,26.79
2019-05-03T15:55:20.679Z,27.08
2019-05-03T15:57:52.535Z,26.97
2019-05-03T16:00:24.530Z,26.59
2019-05-03T16:03:07.462Z,26.19
2019-05-03T16:05:29.989Z,26.06
2019-05-03T16:08:01.864Z,25.83
2019-05-03T16:10:33.849Z,26.01
2019-05-03T16:13:05.882Z,26.76
2019-05-03T16:15:37.775Z,26.88
2019-05-03T16:18:09.649Z,27.67
2019-05-03T16:20:41.505Z,28.11
2019-05-03T16:23:15.260Z,27.95
2019-05-03T16:25:46.864Z,28.21
2019-05-03T16:28:34.375Z,29.09
2019-05-03T16:31:09.291Z,29.25
2019-05-03T16:33:41.179Z,29.16
2019-05-03T16:36:14.751Z,29.16
2019-05-03T16:38:46.717Z,29.45
2019-05-03T16:41:18.577Z,29.08
2019-05-03T16:43:50.444Z,29.72
2019-05-03T16:46:22.330Z,30.01
2019-05-03T16:48:54.200Z,29.56
2019-05-03T16:51:26.471Z,29.75
2019-05-03T16:53:58.350Z,30.02
2019-05-03T16:56:30.239Z,30.50
2019-05-03T16:59:02.346Z,30.79
2019-05-03T17:01:35.187Z,30.95
2019-05-03T17:04:34.546Z,31.69
2019-05-03T17:07:24.662Z,31.17
2019-05-03T17:10:00.876Z,31.14
2019-05-03T17:12:34.798Z,31.36
2019-05-03T17:15:07.458Z,30.75
2019-05-03T17:17:39.347Z,30.77
2019-05-03T17:20:11.349Z,30.48
2019-05-03T17:22:45.011Z,30.58
2019-05-03T17:25:17.005Z,30.83
2019-05-03T17:27:48.858Z,31.09
2019-05-03T17:30:20.878Z,31.18
2019-05-03T17:32:52.804Z,31.11
2019-05-03T17:35:25.174Z,31.65
2019-05-03T17:37:57.167Z,31.35
2019-05-03T17:40:40.590Z,31.75
2019-05-03T17:43:18.258Z,32.12
2019-05-03T17:45:52.610Z,31.76
2019-05-03T17:48:24.512Z,31.93
2019-05-03T17:50:56.371Z,32.25
2019-05-03T17:53:47.172Z,32.62
2019-05-03T17:56:36.610Z,32.74
2019-05-03T17:59:12.443Z,33.23
2019-05-03T18:02:04.215Z,33.30
2019-05-03T18:04:44.275Z,33.08
2019-05-03T18:07:24.346Z,33.46
2019-05-03T18:09:57.805Z,33.48
2019-05-03T18:12:31.014Z,33.69
2019-05-03T18:15:02.873Z,33.95
2019-05-03T18:17:35.228Z,34.09
2019-05-03T18:20:07.346Z,34.29
2019-05-03T18:22:39.248Z,34.44
2019-05-03T18:25:11.165Z,34.54
2019-05-03T18:27:44.612Z,34.99
2019-05-03T18:30:16.707Z,35.04
2019-05-03T18:32:48.570Z,35.14
2019-05-03T18:35:20.375Z,35.79
2019-05-03T18:37:58.791Z,35.54
2019-05-03T18:40:32.855Z,36.36
2019-05-03T18:43:09.817Z,36.34
2019-05-03T18:46:18.510Z,36.77
2019-05-03T18:48:50.734Z,36.62
2019-05-03T18:51:22.614Z,37.16
2019-05-03T18:53:54.596Z,37.06
2019-05-03T18:56:26.444Z,37.36
2019-05-03T18:58:58.335Z,37.30
2019-05-03T19:01:30.198Z,37.13
2019-05-03T19:04:10.999Z,37.43
2019-05-03T19:06:42.870Z,37.68
2019-05-03T19:09:27.266Z,37.54
2019-05-03T19:12:06.616Z,38.63
2019-05-03T19:14:38.981Z,38.34
2019-05-03T19:17:28.083Z,38.43
2019-05-03T19:20:00.226Z,38.40
2019-05-03T19:22:34.312Z,38.53
2019-05-03T19:25:06.133Z,39.47
2019-05-03T19:27:38.047Z,38.42
2019-05-03T19:30:11.459Z,40.18
2019-05-03T19:32:45.037Z,39.29
2019-05-03T19:35:17.107Z,39.79
2019-05-03T19:37:48.979Z,39.80
2019-05-03T19:40:20.868Z,39.43
2019-05-03T19:42:52.726Z,39.07
2019-05-03T19:45:24.934Z,39.66
2019-05-03T19:47:56.863Z,38.98
2019-05-03T19:50:28.730Z,39.46
2019-05-03T19:53:15.972Z,39.65
2019-05-03T19:55:50.559Z,39.86
2019-05-03T19:58:21.451Z,40.22
2019-05-03T20:01:12.229Z,39.88
2019-05-03T20:03:50.888Z,40.45
2019-05-03T20:06:37.887Z,40.25
2019-05-03T20:09:15.152Z,41.16
2019-05-03T20:11:47.109Z,40.74
2019-05-03T20:14:18.969Z,41.38
2019-05-03T20:16:50.784Z,42.22
2019-05-03T20:19:22.693Z,42.57
2019-05-03T20:21:56.759Z,42.96
2019-05-03T20:24:28.078Z,43.84
2019-05-03T20:26:59.888Z,44.35
2019-05-03T20:29:31.757Z,44.12
2019-05-03T20:32:05.802Z,43.88
2019-05-03T20:34:37.437Z,43.49
2019-05-03T20:37:09.319Z,43.24
2019-05-03T20:39:41.109Z,44.83
2019-05-03T20:42:15.518Z,44.33
2019-05-03T20:44:59.853Z,43.62
2019-05-03T20:47:35.143Z,44.12
2019-05-03T20:50:16.737Z,44.59
2019-05-03T20:52:48.548Z,43.76
2019-05-03T20:55:20.439Z,43.13
2019-05-03T20:57:52.309Z,43.52
2019-05-03T21:00:25.734Z,44.43
2019-05-03T21:02:58.969Z,44.65
2019-05-03T21:05:34.479Z,45.23
2019-05-03T21:08:05.605Z,45.03
2019-05-03T21:10:37.585Z,44.84
2019-05-03T21:13:09.446Z,45.40
2019-05-03T21:15:47.547Z,45.28
2019-05-03T21:18:36.432Z,45.23
2019-05-03T21:21:21.899Z,45.03
2019-05-03T21:23:57.273Z,44.95
2019-05-03T21:26:29.069Z,45.13
2019-05-03T21:29:00.916Z,44.81
2019-05-03T21:31:32.799Z,44.60
2019-05-03T21:34:05.665Z,44.50
2019-05-03T21:36:38.597Z,45.03
2019-05-03T21:39:10.460Z,44.73
2019-05-03T21:41:42.312Z,45.40
2019-05-03T21:44:30.803Z,44.80
2019-05-03T21:47:15.274Z,45.15
2019-05-03T21:49:47.154Z,45.02
2019-05-03T21:52:19.077Z,46.14
2019-05-03T21:54:50.938Z,46.75
2019-05-03T21:57:25.154Z,46.49
2019-05-03T21:59:56.383Z,46.65
2019-05-03T22:02:28.200Z,47.07
2019-05-03T22:05:00.065Z,47.31
2019-05-03T22:07:31.941Z,47.08
2019-05-03T22:10:05.005Z,47.98
2019-05-03T22:12:37.029Z,48.17
2019-05-03T22:15:16.175Z,48.50
2019-05-03T22:18:04.707Z,48.09
2019-05-03T22:20:55.018Z,48.52
2019-05-03T22:24:04.490Z,48.37
2019-05-03T22:27:00.158Z,47.65
2019-05-03T22:29:32.201Z,46.95
2019-05-03T22:32:05.307Z,48.03
2019-05-03T22:34:37.325Z,47.21
2019-05-03T22:37:09.178Z,47.65
2019-05-03T22:39:41.030Z,46.61
2019-05-03T22:42:14.716Z,46.37
2019-05-03T22:44:46.391Z,46.27
2019-05-03T22:47:18.263Z,46.52
2019-05-03T22:49:50.121Z,46.99
2019-05-03T22:52:21.995Z,46.78
2019-05-03T22:54:55.496Z,47.31
2019-05-03T22:57:27.640Z,47.34
2019-05-03T22:59:59.487Z,47.56
2019-05-03T23:02:31.340Z,47.55
2019-05-03T23:05:04.676Z,47.37
2019-05-03T23:07:37.491Z,47.13
2019-05-03T23:10:10.509Z,47.59
2019-05-03T23:12:42.379Z,47.54
2019-05-03T23:15:15.082Z,47.70
2019-05-03T23:17:46.977Z,47.81
2019-05-03T23:20:30.787Z,47.73
2019-05-03T23:23:02.841Z,47.79
2019-05-03T23:25:35.635Z,48.71
2019-05-03T23:28:07.566Z,48.61
2019-05-03T23:30:39.419Z,48.75
2019-05-03T23:33:11.351Z,48.78
2019-05-03T23:35:44.379Z,48.73
2019-05-03T23:38:16.667Z,49.67
2019-05-03T23:40:48.535Z,49.50
2019-05-03T23:43:20.350Z,49.83
2019-05-03T23:45:52.219Z,50.18
2019-05-03T23:48:25.349Z,49.96
2019-05-03T23:50:57.196Z,49.86
2019-05-03T23:53:29.072Z,49.69
2019-05-03T23:56:10.604Z,50.04
2019-05-03T23:58:44.553Z,49.78
